Loachapoka, Alabama
Current Conditions -  °F | °C
As of 8:15 PM on Friday 19 Dec 2014 (Local Time) from KAUO Reporting Station
Overcast Overcast  
Wind Chill: 43°   Ceiling: 7500
Heat Index: 46°   Visibility: 10mi
Dew Point: 37°   Wind: 7mph
Humidity: 71%   Direction: 350°N
Pressure: 30.19"   Gusts: NA
Location:  32.6°N, 85.59°W
Report Text: KAUO 200215Z AUTO 35006KT 10SM OVC075 08/03 A3019 RMK AO1
Loading
Personal Weather Stations






























Interactive Weather Map New forecast layout! Learn more

10-Day Weather Forecast

Advertisements
Track Severe Weather on mobile